sensor_id;sensor_type;location;lat;lon;timestamp;P1;durP1;ratioP1;P2;durP2;ratioP2
13687;SDS011;6916;51.504;7.416;2022-12-29T00:00:56;0.87;;;0.53;;
13687;SDS011;6916;51.504;7.416;2022-12-29T00:06:22;0.57;;;0.50;;
13687;SDS011;6916;51.504;7.416;2022-12-29T00:11:44;0.20;;;0.20;;
13687;SDS011;6916;51.504;7.416;2022-12-29T00:17:06;0.80;;;0.33;;
13687;SDS011;6916;51.504;7.416;2022-12-29T00:22:28;1.50;;;0.40;;
13687;SDS011;6916;51.504;7.416;2022-12-29T00:28:08;0.40;;;0.40;;
13687;SDS011;6916;51.504;7.416;2022-12-29T00:33:50;0.83;;;0.30;;
13687;SDS011;6916;51.504;7.416;2022-12-29T00:39:31;0.27;;;0.27;;
13687;SDS011;6916;51.504;7.416;2022-12-29T00:45:12;0.97;;;0.33;;
13687;SDS011;6916;51.504;7.416;2022-12-29T00:50:34;0.20;;;0.20;;
13687;SDS011;6916;51.504;7.416;2022-12-29T00:55:56;0.20;;;0.20;;
13687;SDS011;6916;51.504;7.416;2022-12-29T01:01:18;0.40;;;0.20;;
13687;SDS011;6916;51.504;7.416;2022-12-29T01:06:40;0.20;;;0.20;;
13687;SDS011;6916;51.504;7.416;2022-12-29T01:12:03;0.10;;;0.10;;
13687;SDS011;6916;51.504;7.416;2022-12-29T01:17:26;0.10;;;0.10;;
13687;SDS011;6916;51.504;7.416;2022-12-29T01:22:48;0.10;;;0.10;;
13687;SDS011;6916;51.504;7.416;2022-12-29T01:28:10;0.87;;;0.20;;
13687;SDS011;6916;51.504;7.416;2022-12-29T01:33:33;0.87;;;0.10;;
13687;SDS011;6916;51.504;7.416;2022-12-29T01:38:55;0.20;;;0.10;;
13687;SDS011;6916;51.504;7.416;2022-12-29T01:50:09;0.57;;;0.10;;
13687;SDS011;6916;51.504;7.416;2022-12-29T01:55:36;0.73;;;0.10;;
13687;SDS011;6916;51.504;7.416;2022-12-29T02:01:03;0.37;;;0.10;;
13687;SDS011;6916;51.504;7.416;2022-12-29T02:06:31;0.40;;;0.10;;
13687;SDS011;6916;51.504;7.416;2022-12-29T02:11:55;0.10;;;0.10;;
13687;SDS011;6916;51.504;7.416;2022-12-29T02:28:40;0.00;;;0.00;;
13687;SDS011;6916;51.504;7.416;2022-12-29T02:34:07;0.53;;;0.00;;
13687;SDS011;6916;51.504;7.416;2022-12-29T02:45:25;0.27;;;0.10;;
13687;SDS011;6916;51.504;7.416;2022-12-29T02:50:57;0.90;;;0.10;;
13687;SDS011;6916;51.504;7.416;2022-12-29T02:56:20;0.17;;;0.10;;
13687;SDS011;6916;51.504;7.416;2022-12-29T03:01:55;0.10;;;0.10;;
13687;SDS011;6916;51.504;7.416;2022-12-29T03:13:28;0.77;;;0.10;;
13687;SDS011;6916;51.504;7.416;2022-12-29T03:19:19;0.97;;;0.13;;
13687;SDS011;6916;51.504;7.416;2022-12-29T03:24:45;0.10;;;0.10;;
13687;SDS011;6916;51.504;7.416;2022-12-29T03:30:10;0.30;;;0.10;;
13687;SDS011;6916;51.504;7.416;2022-12-29T03:35:34;0.40;;;0.10;;
13687;SDS011;6916;51.504;7.416;2022-12-29T03:40:59;3.03;;;0.20;;
13687;SDS011;6916;51.504;7.416;2022-12-29T03:46:22;0.40;;;0.20;;
13687;SDS011;6916;51.504;7.416;2022-12-29T03:51:45;0.67;;;0.10;;
13687;SDS011;6916;51.504;7.416;2022-12-29T03:57:12;1.20;;;0.10;;
13687;SDS011;6916;51.504;7.416;2022-12-29T04:02:39;0.30;;;0.10;;
13687;SDS011;6916;51.504;7.416;2022-12-29T04:08:01;0.40;;;0.10;;
13687;SDS011;6916;51.504;7.416;2022-12-29T04:13:23;0.47;;;0.20;;
13687;SDS011;6916;51.504;7.416;2022-12-29T04:18:55;1.27;;;0.10;;
13687;SDS011;6916;51.504;7.416;2022-12-29T04:24:18;1.23;;;0.10;;
13687;SDS011;6916;51.504;7.416;2022-12-29T04:29:40;0.97;;;0.53;;
13687;SDS011;6916;51.504;7.416;2022-12-29T04:35:17;0.20;;;0.00;;
13687;SDS011;6916;51.504;7.416;2022-12-29T04:40:40;2.37;;;0.20;;
13687;SDS011;6916;51.504;7.416;2022-12-29T04:46:04;0.83;;;0.10;;
13687;SDS011;6916;51.504;7.416;2022-12-29T04:51:32;0.30;;;0.17;;
13687;SDS011;6916;51.504;7.416;2022-12-29T04:56:54;0.30;;;0.10;;
13687;SDS011;6916;51.504;7.416;2022-12-29T05:02:18;0.10;;;0.10;;
13687;SDS011;6916;51.504;7.416;2022-12-29T05:07:41;0.30;;;0.13;;
13687;SDS011;6916;51.504;7.416;2022-12-29T05:13:05;0.60;;;0.20;;
13687;SDS011;6916;51.504;7.416;2022-12-29T05:18:27;0.53;;;0.10;;
13687;SDS011;6916;51.504;7.416;2022-12-29T05:23:49;0.30;;;0.20;;
13687;SDS011;6916;51.504;7.416;2022-12-29T05:29:11;0.10;;;0.10;;
13687;SDS011;6916;51.504;7.416;2022-12-29T05:34:33;2.70;;;0.30;;
13687;SDS011;6916;51.504;7.416;2022-12-29T05:39:57;0.93;;;0.10;;
13687;SDS011;6916;51.504;7.416;2022-12-29T05:45:21;0.30;;;0.10;;
13687;SDS011;6916;51.504;7.416;2022-12-29T05:50:59;0.87;;;0.10;;
13687;SDS011;6916;51.504;7.416;2022-12-29T05:56:26;0.10;;;0.10;;
13687;SDS011;6916;51.504;7.416;2022-12-29T06:01:49;2.27;;;0.40;;
13687;SDS011;6916;51.504;7.416;2022-12-29T06:07:12;0.60;;;0.10;;
13687;SDS011;6916;51.504;7.416;2022-12-29T06:12:34;0.30;;;0.10;;
13687;SDS011;6916;51.504;7.416;2022-12-29T06:17:56;0.87;;;0.20;;
13687;SDS011;6916;51.504;7.416;2022-12-29T06:23:19;1.17;;;0.10;;
13687;SDS011;6916;51.504;7.416;2022-12-29T06:28:41;2.90;;;0.20;;
13687;SDS011;6916;51.504;7.416;2022-12-29T06:34:03;1.60;;;0.30;;
13687;SDS011;6916;51.504;7.416;2022-12-29T06:39:25;1.33;;;0.47;;
13687;SDS011;6916;51.504;7.416;2022-12-29T06:44:49;3.90;;;0.30;;
13687;SDS011;6916;51.504;7.416;2022-12-29T06:50:11;1.87;;;0.37;;
13687;SDS011;6916;51.504;7.416;2022-12-29T06:55:33;0.60;;;0.20;;
13687;SDS011;6916;51.504;7.416;2022-12-29T07:00:55;0.73;;;0.20;;
13687;SDS011;6916;51.504;7.416;2022-12-29T07:06:17;0.83;;;0.20;;
13687;SDS011;6916;51.504;7.416;2022-12-29T07:11:39;0.97;;;0.20;;
13687;SDS011;6916;51.504;7.416;2022-12-29T07:17:02;1.03;;;0.20;;
13687;SDS011;6916;51.504;7.416;2022-12-29T07:22:27;1.13;;;0.20;;
13687;SDS011;6916;51.504;7.416;2022-12-29T07:27:49;0.43;;;0.10;;
13687;SDS011;6916;51.504;7.416;2022-12-29T07:33:11;3.07;;;0.27;;
13687;SDS011;6916;51.504;7.416;2022-12-29T07:38:33;2.90;;;0.30;;
13687;SDS011;6916;51.504;7.416;2022-12-29T07:43:55;1.43;;;0.40;;
13687;SDS011;6916;51.504;7.416;2022-12-29T07:49:53;0.83;;;0.20;;
13687;SDS011;6916;51.504;7.416;2022-12-29T07:55:15;1.40;;;0.30;;
13687;SDS011;6916;51.504;7.416;2022-12-29T08:00:38;2.63;;;0.20;;
13687;SDS011;6916;51.504;7.416;2022-12-29T08:06:00;1.47;;;0.30;;
13687;SDS011;6916;51.504;7.416;2022-12-29T08:11:22;1.73;;;0.30;;
13687;SDS011;6916;51.504;7.416;2022-12-29T08:16:44;2.23;;;0.30;;
13687;SDS011;6916;51.504;7.416;2022-12-29T08:22:06;2.17;;;0.33;;
13687;SDS011;6916;51.504;7.416;2022-12-29T08:27:29;1.40;;;0.20;;
13687;SDS011;6916;51.504;7.416;2022-12-29T08:32:51;2.67;;;0.30;;
13687;SDS011;6916;51.504;7.416;2022-12-29T08:38:13;3.43;;;0.30;;
13687;SDS011;6916;51.504;7.416;2022-12-29T08:43:35;2.63;;;0.60;;
13687;SDS011;6916;51.504;7.416;2022-12-29T08:48:57;2.33;;;0.27;;
13687;SDS011;6916;51.504;7.416;2022-12-29T08:54:19;2.80;;;0.40;;
13687;SDS011;6916;51.504;7.416;2022-12-29T08:59:41;4.03;;;0.50;;
13687;SDS011;6916;51.504;7.416;2022-12-29T09:05:04;4.50;;;0.63;;
13687;SDS011;6916;51.504;7.416;2022-12-29T09:10:27;4.67;;;0.40;;
13687;SDS011;6916;51.504;7.416;2022-12-29T09:15:57;4.23;;;0.60;;
13687;SDS011;6916;51.504;7.416;2022-12-29T09:21:20;3.23;;;0.67;;
13687;SDS011;6916;51.504;7.416;2022-12-29T09:26:42;4.27;;;0.50;;
13687;SDS011;6916;51.504;7.416;2022-12-29T09:32:04;1.97;;;0.30;;
13687;SDS011;6916;51.504;7.416;2022-12-29T09:37:26;3.80;;;0.80;;
13687;SDS011;6916;51.504;7.416;2022-12-29T10:00:14;5.30;;;0.97;;
13687;SDS011;6916;51.504;7.416;2022-12-29T10:05:46;4.93;;;0.87;;
13687;SDS011;6916;51.504;7.416;2022-12-29T10:11:20;4.73;;;0.50;;
13687;SDS011;6916;51.504;7.416;2022-12-29T10:16:57;5.30;;;0.80;;
13687;SDS011;6916;51.504;7.416;2022-12-29T10:28:15;4.10;;;0.50;;
13687;SDS011;6916;51.504;7.416;2022-12-29T10:33:40;2.97;;;0.80;;
13687;SDS011;6916;51.504;7.416;2022-12-29T10:44:35;4.00;;;0.50;;
13687;SDS011;6916;51.504;7.416;2022-12-29T10:49:57;2.77;;;0.63;;
13687;SDS011;6916;51.504;7.416;2022-12-29T10:55:31;5.30;;;1.10;;
13687;SDS011;6916;51.504;7.416;2022-12-29T11:00:55;6.00;;;0.67;;
13687;SDS011;6916;51.504;7.416;2022-12-29T11:06:19;5.90;;;1.30;;
13687;SDS011;6916;51.504;7.416;2022-12-29T11:11:47;5.33;;;1.20;;
13687;SDS011;6916;51.504;7.416;2022-12-29T11:17:14;4.33;;;0.67;;
13687;SDS011;6916;51.504;7.416;2022-12-29T11:22:38;4.20;;;0.50;;
13687;SDS011;6916;51.504;7.416;2022-12-29T11:28:15;3.47;;;0.60;;
13687;SDS011;6916;51.504;7.416;2022-12-29T11:33:39;2.70;;;0.50;;
13687;SDS011;6916;51.504;7.416;2022-12-29T11:39:01;7.80;;;0.93;;
13687;SDS011;6916;51.504;7.416;2022-12-29T11:44:24;5.67;;;0.93;;
13687;SDS011;6916;51.504;7.416;2022-12-29T11:49:54;1.90;;;0.30;;
13687;SDS011;6916;51.504;7.416;2022-12-29T11:55:19;1.70;;;0.60;;
13687;SDS011;6916;51.504;7.416;2022-12-29T12:00:43;3.73;;;0.40;;
13687;SDS011;6916;51.504;7.416;2022-12-29T12:06:07;3.43;;;0.50;;
13687;SDS011;6916;51.504;7.416;2022-12-29T12:11:34;4.13;;;0.80;;
13687;SDS011;6916;51.504;7.416;2022-12-29T12:17:02;4.53;;;1.27;;
13687;SDS011;6916;51.504;7.416;2022-12-29T12:28:55;3.70;;;0.47;;
13687;SDS011;6916;51.504;7.416;2022-12-29T12:33:57;3.10;;;0.30;;
13687;SDS011;6916;51.504;7.416;2022-12-29T12:51:19;4.30;;;0.93;;
13687;SDS011;6916;51.504;7.416;2022-12-29T12:56:52;4.33;;;0.70;;
13687;SDS011;6916;51.504;7.416;2022-12-29T13:13:57;5.63;;;0.80;;
13687;SDS011;6916;51.504;7.416;2022-12-29T13:25:25;6.40;;;0.90;;
13687;SDS011;6916;51.504;7.416;2022-12-29T13:36:56;4.37;;;0.97;;
13687;SDS011;6916;51.504;7.416;2022-12-29T13:42:21;3.63;;;1.03;;
13687;SDS011;6916;51.504;7.416;2022-12-29T13:47:49;4.03;;;0.60;;
13687;SDS011;6916;51.504;7.416;2022-12-29T14:04:33;3.40;;;0.70;;
13687;SDS011;6916;51.504;7.416;2022-12-29T14:09:56;3.93;;;0.73;;
13687;SDS011;6916;51.504;7.416;2022-12-29T14:15:21;3.20;;;0.67;;
13687;SDS011;6916;51.504;7.416;2022-12-29T14:20:52;2.73;;;0.50;;
13687;SDS011;6916;51.504;7.416;2022-12-29T14:26:32;4.00;;;0.90;;
13687;SDS011;6916;51.504;7.416;2022-12-29T14:31:56;6.43;;;0.50;;
13687;SDS011;6916;51.504;7.416;2022-12-29T14:37:26;3.83;;;0.70;;
13687;SDS011;6916;51.504;7.416;2022-12-29T14:42:50;3.37;;;0.63;;
13687;SDS011;6916;51.504;7.416;2022-12-29T14:48:46;3.77;;;0.50;;
13687;SDS011;6916;51.504;7.416;2022-12-29T15:00:06;3.70;;;0.70;;
13687;SDS011;6916;51.504;7.416;2022-12-29T15:05:43;5.03;;;0.73;;
13687;SDS011;6916;51.504;7.416;2022-12-29T15:11:12;5.03;;;0.80;;
13687;SDS011;6916;51.504;7.416;2022-12-29T15:16:37;4.93;;;0.70;;
13687;SDS011;6916;51.504;7.416;2022-12-29T15:21:59;2.73;;;0.63;;
13687;SDS011;6916;51.504;7.416;2022-12-29T15:27:24;2.73;;;0.67;;
13687;SDS011;6916;51.504;7.416;2022-12-29T15:32:48;4.57;;;0.53;;
13687;SDS011;6916;51.504;7.416;2022-12-29T15:38:15;3.60;;;0.47;;
13687;SDS011;6916;51.504;7.416;2022-12-29T15:49:11;7.87;;;2.20;;
13687;SDS011;6916;51.504;7.416;2022-12-29T15:54:36;4.43;;;0.60;;
13687;SDS011;6916;51.504;7.416;2022-12-29T15:59:59;2.90;;;0.60;;
13687;SDS011;6916;51.504;7.416;2022-12-29T16:05:22;1.97;;;0.77;;
13687;SDS011;6916;51.504;7.416;2022-12-29T16:10:44;4.70;;;0.60;;
13687;SDS011;6916;51.504;7.416;2022-12-29T16:16:25;2.63;;;1.10;;
13687;SDS011;6916;51.504;7.416;2022-12-29T16:21:52;5.17;;;1.17;;
13687;SDS011;6916;51.504;7.416;2022-12-29T16:27:18;4.10;;;0.83;;
13687;SDS011;6916;51.504;7.416;2022-12-29T16:32:47;2.67;;;0.50;;
13687;SDS011;6916;51.504;7.416;2022-12-29T16:38:15;4.07;;;0.80;;
13687;SDS011;6916;51.504;7.416;2022-12-29T16:43:44;5.90;;;0.67;;
13687;SDS011;6916;51.504;7.416;2022-12-29T16:49:07;4.03;;;0.80;;
13687;SDS011;6916;51.504;7.416;2022-12-29T16:54:44;4.73;;;1.00;;
13687;SDS011;6916;51.504;7.416;2022-12-29T17:00:18;3.10;;;0.90;;
13687;SDS011;6916;51.504;7.416;2022-12-29T17:05:42;2.67;;;0.60;;
13687;SDS011;6916;51.504;7.416;2022-12-29T17:11:04;4.73;;;0.73;;
13687;SDS011;6916;51.504;7.416;2022-12-29T17:16:46;3.33;;;0.73;;
13687;SDS011;6916;51.504;7.416;2022-12-29T17:22:09;7.63;;;1.33;;
13687;SDS011;6916;51.504;7.416;2022-12-29T17:27:38;2.83;;;0.93;;
13687;SDS011;6916;51.504;7.416;2022-12-29T17:33:04;5.67;;;0.87;;
13687;SDS011;6916;51.504;7.416;2022-12-29T17:38:30;5.33;;;1.00;;
13687;SDS011;6916;51.504;7.416;2022-12-29T17:43:53;4.00;;;0.83;;
13687;SDS011;6916;51.504;7.416;2022-12-29T17:49:16;5.47;;;1.40;;
13687;SDS011;6916;51.504;7.416;2022-12-29T17:54:46;8.20;;;1.17;;
13687;SDS011;6916;51.504;7.416;2022-12-29T18:00:21;0.87;;;0.30;;
13687;SDS011;6916;51.504;7.416;2022-12-29T18:05:45;2.20;;;0.50;;
13687;SDS011;6916;51.504;7.416;2022-12-29T18:11:19;3.57;;;0.77;;
13687;SDS011;6916;51.504;7.416;2022-12-29T18:16:43;2.30;;;0.60;;
13687;SDS011;6916;51.504;7.416;2022-12-29T18:22:05;2.63;;;0.80;;
13687;SDS011;6916;51.504;7.416;2022-12-29T18:27:27;1.27;;;0.90;;
13687;SDS011;6916;51.504;7.416;2022-12-29T18:32:49;8.37;;;4.23;;
13687;SDS011;6916;51.504;7.416;2022-12-29T18:38:11;11.57;;;6.73;;
13687;SDS011;6916;51.504;7.416;2022-12-29T18:43:34;7.30;;;2.83;;
13687;SDS011;6916;51.504;7.416;2022-12-29T18:48:56;4.07;;;0.83;;
13687;SDS011;6916;51.504;7.416;2022-12-29T18:54:23;4.23;;;1.30;;
13687;SDS011;6916;51.504;7.416;2022-12-29T18:59:51;8.13;;;1.30;;
13687;SDS011;6916;51.504;7.416;2022-12-29T19:05:30;6.73;;;1.53;;
13687;SDS011;6916;51.504;7.416;2022-12-29T19:10:59;8.77;;;1.50;;
13687;SDS011;6916;51.504;7.416;2022-12-29T19:16:21;5.30;;;1.10;;
13687;SDS011;6916;51.504;7.416;2022-12-29T19:21:45;5.63;;;1.20;;
13687;SDS011;6916;51.504;7.416;2022-12-29T19:27:07;9.57;;;1.63;;
13687;SDS011;6916;51.504;7.416;2022-12-29T19:32:30;11.37;;;1.87;;
13687;SDS011;6916;51.504;7.416;2022-12-29T19:37:52;8.13;;;1.60;;
13687;SDS011;6916;51.504;7.416;2022-12-29T19:43:14;9.57;;;1.60;;
13687;SDS011;6916;51.504;7.416;2022-12-29T19:48:37;11.47;;;2.20;;
13687;SDS011;6916;51.504;7.416;2022-12-29T19:53:59;8.43;;;1.63;;
13687;SDS011;6916;51.504;7.416;2022-12-29T19:59:21;8.57;;;2.47;;
13687;SDS011;6916;51.504;7.416;2022-12-29T20:04:46;9.77;;;1.90;;
13687;SDS011;6916;51.504;7.416;2022-12-29T20:10:09;5.23;;;1.50;;
13687;SDS011;6916;51.504;7.416;2022-12-29T20:15:31;10.10;;;1.70;;
13687;SDS011;6916;51.504;7.416;2022-12-29T20:20:53;7.47;;;1.53;;
13687;SDS011;6916;51.504;7.416;2022-12-29T20:26:20;8.30;;;1.63;;
13687;SDS011;6916;51.504;7.416;2022-12-29T20:31:44;6.90;;;1.53;;
13687;SDS011;6916;51.504;7.416;2022-12-29T20:37:06;6.70;;;1.37;;
13687;SDS011;6916;51.504;7.416;2022-12-29T20:42:29;10.10;;;1.93;;
13687;SDS011;6916;51.504;7.416;2022-12-29T20:47:52;6.80;;;1.30;;
13687;SDS011;6916;51.504;7.416;2022-12-29T20:53:15;8.43;;;2.27;;
13687;SDS011;6916;51.504;7.416;2022-12-29T20:58:38;7.00;;;1.60;;
13687;SDS011;6916;51.504;7.416;2022-12-29T21:04:01;7.23;;;1.47;;
13687;SDS011;6916;51.504;7.416;2022-12-29T21:09:24;8.43;;;1.77;;
13687;SDS011;6916;51.504;7.416;2022-12-29T21:14:46;8.93;;;1.73;;
13687;SDS011;6916;51.504;7.416;2022-12-29T21:20:08;7.53;;;1.23;;
13687;SDS011;6916;51.504;7.416;2022-12-29T21:25:32;7.67;;;1.23;;
13687;SDS011;6916;51.504;7.416;2022-12-29T21:31:07;7.40;;;1.37;;
13687;SDS011;6916;51.504;7.416;2022-12-29T21:36:32;8.40;;;1.03;;
13687;SDS011;6916;51.504;7.416;2022-12-29T21:41:56;10.03;;;1.53;;
13687;SDS011;6916;51.504;7.416;2022-12-29T21:47:21;10.63;;;1.40;;
13687;SDS011;6916;51.504;7.416;2022-12-29T21:52:43;7.53;;;1.40;;
13687;SDS011;6916;51.504;7.416;2022-12-29T21:58:07;8.17;;;1.33;;
13687;SDS011;6916;51.504;7.416;2022-12-29T22:03:48;8.70;;;1.30;;
13687;SDS011;6916;51.504;7.416;2022-12-29T22:09:30;7.70;;;1.50;;
13687;SDS011;6916;51.504;7.416;2022-12-29T22:15:11;9.67;;;1.33;;
13687;SDS011;6916;51.504;7.416;2022-12-29T22:20:35;7.03;;;1.87;;
13687;SDS011;6916;51.504;7.416;2022-12-29T22:26:01;7.83;;;1.80;;
13687;SDS011;6916;51.504;7.416;2022-12-29T22:31:26;11.27;;;1.70;;
13687;SDS011;6916;51.504;7.416;2022-12-29T22:36:49;7.30;;;1.30;;
13687;SDS011;6916;51.504;7.416;2022-12-29T22:42:12;8.43;;;1.60;;
13687;SDS011;6916;51.504;7.416;2022-12-29T22:47:36;10.40;;;1.80;;
13687;SDS011;6916;51.504;7.416;2022-12-29T22:52:58;6.53;;;1.43;;
13687;SDS011;6916;51.504;7.416;2022-12-29T22:58:20;5.73;;;2.23;;
13687;SDS011;6916;51.504;7.416;2022-12-29T23:03:46;6.50;;;1.40;;
13687;SDS011;6916;51.504;7.416;2022-12-29T23:09:18;5.67;;;1.10;;
13687;SDS011;6916;51.504;7.416;2022-12-29T23:14:41;6.30;;;1.20;;
13687;SDS011;6916;51.504;7.416;2022-12-29T23:20:05;9.03;;;1.77;;
13687;SDS011;6916;51.504;7.416;2022-12-29T23:25:29;9.40;;;1.63;;
13687;SDS011;6916;51.504;7.416;2022-12-29T23:30:51;10.30;;;1.30;;
13687;SDS011;6916;51.504;7.416;2022-12-29T23:36:14;8.40;;;1.90;;
13687;SDS011;6916;51.504;7.416;2022-12-29T23:41:36;12.07;;;1.53;;
13687;SDS011;6916;51.504;7.416;2022-12-29T23:46:58;7.53;;;1.70;;
13687;SDS011;6916;51.504;7.416;2022-12-29T23:52:21;10.30;;;1.50;;
13687;SDS011;6916;51.504;7.416;2022-12-29T23:57:43;8.83;;;1.87;;
